Nearby METAR Reports
LFBA - Agen,(47)Lot-et-Garonne
Mise à jour: Tue, 17-Jul-2018 01:00 CEST
Partiellement nuageux
Partiellement nuageux
 Wind from WSW
Vent: WSW 6 km/h
Température: 26°C
Point de Rosée: 16°C
Humidité: 54%
Barometre: 1020 hPa
Nuage: Partiellement nuageux
Visibilité: 10 km
2018/07/17 11:00 LFBA 171100Z AUTO 24003KT 210V320 9999 SCT038 26/16 Q1020 NOSIG
LFKJ - Ajaccio,(2A)Corse-du-Sud
Mise à jour: Tue, 17-Jul-2018 01:00 CEST
Claire
Claire
 Wind from WSW
Vent: WSW 20 km/h
Température: 27°C
Humidex: 28°C
Point de Rosée: 19°C
Humidité: 62%
Barometre: 1013 hPa
Visibilité: Supérieure à  10 km
2018/07/17 11:00 LFKJ 171100Z AUTO 24011KT CAVOK 27/19 Q1013 NOSIG
LFLP - Annecy,(74)Haute-Savoie
Mise à jour: Tue, 17-Jul-2018 01:00 CEST
Claire
Claire
 Wind from NNW
Vent: NNW 7 km/h
Température: 27°C
Humidex: 27°C
Point de Rosée: 13°C
Humidité: 42%
Barometre: 1018 hPa
Visibilité: Supérieure à  10 km
2018/07/17 11:00 LFLP 171100Z AUTO 33004KT 250V060 CAVOK 27/13 Q1018 TEMPO FEW045CB SCT050TCU
 
LFLW - Aurillac,(15)Cantal
Mise à jour: Tue, 17-Jul-2018 01:00 CEST
Nuageux
Nuageux
 Wind from N
Vent: N 9 km/h
Température: 20°C
Point de Rosée: 13°C
Humidité: 64%
Barometre: 1022 hPa
Nuage: Nuageux
Visibilité: 10 km
2018/07/17 11:00 LFLW 171100Z AUTO 35005KT 310V030 9999 BKN030 20/13 Q1022 NOSIG
LFOA - Avord,(18)Cher
Mise à jour: Tue, 17-Jul-2018 01:00 CEST
Nuageux
Nuageux
 Wind from W
Vent: W 20 km/h
Température: 23°C
Point de Rosée: 14°C
Humidité: 57%
Barometre: 1019 hPa
Nuage: Nuageux
Visibilité: 10 km
2018/07/17 11:00 LFOA 171100Z AUTO 27011KT 240V300 9999 SCT033 BKN041 BKN048 23/14 Q1019 NOSIG
LFSB - Bale(CH)-Mulhouse,(68)Haut-Rhin
Mise à jour: Tue, 17-Jul-2018 01:00 CEST
Partiellement nuageux
Partiellement nuageux
 Wind from W
Vent: W 11 km/h
Température: 29°C
Point de Rosée: 12°C
Humidité: 35%
Barometre: 1016 hPa
Nuage: Partiellement nuageux
Visibilité: 10 km
2018/07/17 11:00 LFSB 171100Z 28006KT 250V310 9999 FEW050CB SCT260 29/12 Q1016 NOSIG
 
LFKB - Bastia,(2B)Haute-Corse
Mise à jour: Tue, 17-Jul-2018 01:00 CEST
Quelques nuages
Quelques nuages
 Wind from E
Vent: E 11 km/h
Température: 30°C
Humidex: 31°C
Point de Rosée: 18°C
Humidité: 49%
Barometre: 1012 hPa
Nuage: Quelques nuages
Visibilité: 10 km
2018/07/17 11:00 LFKB 171100Z AUTO 10006KT 060V140 9999 FEW013 30/18 Q1012 TEMPO 34010G20KT
LFOB - Beauvais,(60)Oise
Mise à jour: Tue, 17-Jul-2018 01:00 CEST
Nuageux
Nuageux
 Wind from varies
Vent: varies 6 km/h
Température: 23°C
Point de Rosée: 12°C
Humidité: 50%
Barometre: 1018 hPa
Nuage: Nuageux
Visibilité: 10 km
2018/07/17 11:00 LFOB 171100Z AUTO VRB03KT 9999 FEW049 SCT056 BKN068 23/12 Q1018 NOSIG
LFBE - Bergerac,(24)Dordogne
Mise à jour: Tue, 17-Jul-2018 01:00 CEST
Claire
Claire
 Wind from varies
Vent: varies 4 km/h
Température: 25°C
Point de Rosée: 15°C
Humidité: 54%
Barometre: 1020 hPa
Visibilité: Supérieure à  10 km
2018/07/17 11:00 LFBE 171100Z AUTO VRB02KT CAVOK 25/15 Q1020 NOSIG
 
LFMU - Beziers, Vias,(34)Hérault
Mise à jour: Tue, 17-Jul-2018 01:00 CEST
Claire
Claire
 Wind from WNW
Vent: WNW 20 km/h
Température: 29°C
Humidex: 28°C
Point de Rosée: 14°C
Humidité: 40%
Barometre: 1017 hPa
Visibilité: Supérieure à  10 km
2018/07/17 11:00 LFMU 171100Z AUTO 30011KT CAVOK 29/14 Q1017 NOSIG
LFBZ - Biarritz,(64)Pyrénées-Atlantiques
Mise à jour: Tue, 17-Jul-2018 01:00 CEST
Nuageux
Nuageux
 Wind from WNW
Vent: WNW 9 km/h
Température: 23°C
Point de Rosée: 18°C
Humidité: 74%
Barometre: 1020 hPa
Nuage: Nuageux
Visibilité: 10 km
2018/07/17 11:00 LFBZ 171100Z AUTO 29005KT 250V320 9999 SCT021 BKN030 23/18 Q1020 NOSIG
LFBD - Bordeaux , Merignac,(33)Gironde
Mise à jour: Tue, 17-Jul-2018 01:00 CEST
Couvert
Couvert
 Wind from varies
Vent: varies 6 km/h
Température: 25°C
Point de Rosée: 16°C
Humidité: 57%
Barometre: 1020 hPa
Nuage: Couvert
Visibilité: 10 km
2018/07/17 11:00 LFBD 171100Z AUTO VRB03KT 9999 BKN035 BKN041 OVC050 25/16 Q1020 NOSIG
 
LFAQ - Bray,(80)Somme
Mise à jour: Tue, 17-Jul-2018 01:00 CEST
Claire
Claire
 Wind from varies
Vent: varies 0 km/h
Température: 23°C
Point de Rosée: 12°C
Humidité: 50%
Barometre: 1018 hPa
Visibilité: Supérieure à  10 km
2018/07/17 11:00 LFAQ 171100Z AUTO /////KT CAVOK 23/12 Q1018
LFRB - Brest,(29)Finistère
Mise à jour: Tue, 17-Jul-2018 01:00 CEST
Couvert
Couvert
 Wind from W
Vent: W 15 km/h
Température: 20°C
Point de Rosée: 11°C
Humidité: 56%
Barometre: 1019 hPa
Nuage: Couvert
Visibilité: 10 km
2018/07/17 11:00 LFRB 171100Z AUTO 26008KT 230V300 9999 SCT035 BKN046 OVC058 20/11 Q1019 TEMPO SHRA
LFBU - Brie,Champniers,(16)Charente
Mise à jour: Tue, 17-Jul-2018 01:00 CEST
Couvert
Couvert
 Wind from varies
Vent: varies 6 km/h
Température: 23°C
Point de Rosée: 15°C
Humidité: 61%
Barometre: 1021 hPa
Nuage: Couvert
Visibilité: 10 km
2018/07/17 11:00 LFBU 171100Z AUTO VRB03KT 9999 SCT039 OVC049 23/15 Q1021 NOSIG
 
LFSL - Brive (19), Souillac(46),Corrèze Lot
Mise à jour: Tue, 17-Jul-2018 01:00 CEST
Nuageux
Nuageux
 Wind from NW
Vent: NW 9 km/h
Température: 22°C
Point de Rosée: 15°C
Humidité: 65%
Barometre: 1021 hPa
Nuage: Nuageux
Visibilité: 10 km
2018/07/17 11:00 LFSL 171100Z AUTO 32005KT 220V030 9999 BKN034 BKN052 22/15 Q1021 NOSIG
LFRK - Caen,(14)Calvados
Mise à jour: Tue, 17-Jul-2018 12:00 CEST
Pas Actualisé
Claire
Claire
 Wind from WNW
Vent: WNW 11 km/h
Température: 22°C
Point de Rosée: 11°C
Humidité: 50%
Barometre: 1019 hPa
Visibilité: Supérieure à  10 km
2018/07/17 10:00 LFRK 171000Z AUTO 29006KT 230V020 CAVOK 22/11 Q1019 NOSIG
LFKC - Calvi,(2B)Haute-Corse
Mise à jour: Tue, 17-Jul-2018 01:00 CEST
Claire
Claire
 Wind from NNW
Vent: NNW 9 km/h
Température: 30°C
Humidex: 29°C
Point de Rosée: 15°C
Humidité: 40%
Barometre: 1012 hPa
Visibilité: Supérieure à  10 km
2018/07/17 11:00 LFKC 171100Z AUTO 33005KT 260V030 CAVOK 30/15 Q1012 NOSIG
 
LFMD - Cannes,(06)Alpes-Maritimes
Mise à jour: Tue, 17-Jul-2018 01:00 CEST
Claire
Claire
 Wind from SSE
Vent: SSE 9 km/h
Température: 28°C
Humidex: 28°C
Point de Rosée: 15°C
Humidité: 45%
Barometre: 1012 hPa
Visibilité: Supérieure à  10 km
2018/07/17 11:00 LFMD 171100Z AUTO 16005KT CAVOK 28/15 Q1012 NOSIG
LFMK - Carcassonne,(11)Aude
Mise à jour: Tue, 17-Jul-2018 01:00 CEST
Nuageux
Nuageux
 Wind from WNW
Vent: WNW 19 km/h
Température: 25°C
Point de Rosée: 15°C
Humidité: 54%
Barometre: 1020 hPa
Nuage: Nuageux
Visibilité: 10 km
2018/07/17 11:00 LFMK 171100Z AUTO 30010KT 270V330 9999 BKN039 25/15 Q1020 NOSIG
LFCK - Castre-Mazamet,(81)Tarn
Mise à jour: Tue, 17-Jul-2018 01:00 CEST
Quelques nuages
Quelques nuages
 Wind from NW
Vent: NW 15 km/h
Température: 23°C
Point de Rosée: 15°C
Humidité: 61%
Barometre: 1022 hPa
Nuage: Quelques nuages
Visibilité: 10 km
2018/07/17 11:00 LFCK 171100Z AUTO 32008KT 270V360 9999 FEW034 23/15 Q1022 NOSIG
 
LFMV - Avignon/Caumont,(84) Vaucluse
Mise à jour: Tue, 17-Jul-2018 01:00 CEST
Claire
Claire
 Wind from NNW
Vent: NNW 39 km/h
Température: 31°C
Point de Rosée: 14°C
Humidité: 35%
Barometre: 1014 hPa
Visibilité: Supérieure à  10 km
2018/07/17 11:00 LFMV 171100Z AUTO 34021KT 320V020 CAVOK 31/14 Q1014 TEMPO 35020G30KT
LFBC - Cazaux, (33)Gironde
Mise à jour: Tue, 17-Jul-2018 01:00 CEST
Claire
Claire
 Wind from SSW
Vent: SSW 13 km/h
Température: 25°C
Point de Rosée: 16°C
Humidité: 57%
Barometre: 1020 hPa
Visibilité: Supérieure à  10 km
2018/07/17 11:00 LFBC 171100Z AUTO 21007KT 180V250 CAVOK 25/16 Q1020 NOSIG
LFOK - Chalon,Vatry,(51)Marne
Mise à jour: Tue, 17-Jul-2018 01:00 CEST
Quelques nuages
Quelques nuages
 Wind from W
Vent: W 15 km/h
Température: 26°C
Point de Rosée: 14°C
Humidité: 48%
Barometre: 1017 hPa
Nuage: Quelques nuages
Visibilité: 10 km
2018/07/17 11:00 LFOK 171100Z AUTO 27008KT 230V320 9999 FEW049 26/14 Q1017 NOSIG
 
LFLB - Chambery,Aix Bai,(73)Savoie
Mise à jour: Tue, 17-Jul-2018 01:00 CEST
Claire
Claire
 Wind from NNE
Vent: NNE 11 km/h
Température: 27°C
Humidex: 28°C
Point de Rosée: 16°C
Humidité: 51%
Barometre: 1017 hPa
Visibilité: Supérieure à  10 km
2018/07/17 11:00 LFLB 171100Z AUTO 02006KT 350V050 CAVOK 27/16 Q1017 NOSIG
LFOC - Chateaudun,(28)Eure-et-Loir
Mise à jour: Tue, 17-Jul-2018 01:00 CEST
Couvert
Couvert
 Wind from WNW
Vent: WNW 11 km/h
Température: 23°C
Point de Rosée: 13°C
Humidité: 53%
Barometre: 1018 hPa
Nuage: Couvert
Visibilité: 10 km
2018/07/17 11:00 LFOC 171100Z AUTO 29006KT 230V340 9999 FEW041 BKN062 OVC074 23/13 Q1018 NOSIG
LFLX - Chateauroux,(36)Indre
Mise à jour: Tue, 17-Jul-2018 01:00 CEST
Nuageux
Nuageux
 Wind from W
Vent: W 20 km/h
Température: 24°C
Point de Rosée: 13°C
Humidité: 50%
Barometre: 1019 hPa
Nuage: Nuageux
Visibilité: 10 km
2018/07/17 11:00 LFLX 171100Z AUTO 27011KT 9999 BKN040 BKN047 24/13 Q1019 NOSIG
 
LFRC - Cherbourg , Maupertus,(50)Manche
Mise à jour: Tue, 17-Jul-2018 01:00 CEST
Couvert
Couvert
 Wind from W
Vent: W 17 km/h
Température: 18°C
Point de Rosée: 13°C
Humidité: 73%
Barometre: 1019 hPa
Nuage: Couvert
Visibilité: 10 km
2018/07/17 11:00 LFRC 171100Z AUTO 27009KT 9999 FEW019 OVC048 18/13 Q1019 NOSIG
LFLC - Clermont-Ferrand,(63)Puy-de-Dôme
Mise à jour: Tue, 17-Jul-2018 01:00 CEST
Nuageux
Nuageux
 Wind from varies
Vent: varies 9 km/h
Température: 24°C
Point de Rosée: 15°C
Humidité: 57%
Barometre: 1020 hPa
Nuage: Nuageux
Visibilité: 10 km
2018/07/17 11:00 LFLC 171100Z AUTO VRB05KT 9999 BKN039 24/15 Q1020 NOSIG
LFBG - Cognac,(16)Charente
Mise à jour: Tue, 17-Jul-2018 01:00 CEST
Couvert
Couvert
 Wind from SSW
Vent: SSW 7 km/h
Température: 24°C
Point de Rosée: 15°C
Humidité: 57%
Barometre: 1020 hPa
Nuage: Couvert
Visibilité: 10 km
2018/07/17 11:00 LFBG 171100Z AUTO 20004KT 150V290 9999 BKN036 OVC042 24/15 Q1020 NOSIG
 
LFGA - Colmar,(68)Haut-Rhin
Mise à jour: Tue, 17-Jul-2018 01:00 CEST
Près orage, Orageux
Près orage, Orageux
 Wind from S
Vent: S 24 km/h
Température: 23°C
Point de Rosée: 16°C
Humidité: 65%
Barometre: 1016 hPa
Nuage: Orageux
Visibilité: 10 km
2018/07/17 11:00 LFGA 171100Z AUTO 18013KT 9999 VCTS FEW056/// SCT120/// ///CB 23/16 Q1016
LFPT - Cormeilles Vexin,(95)Val-d Oise
Mise à jour: Tue, 17-Jul-2018 01:00 CEST
Quelques nuages
Quelques nuages
 Wind from NNW
Vent: NNW 9 km/h
Température: 23°C
Point de Rosée: 12°C
Humidité: 50%
Barometre: 1018 hPa
Nuage: Quelques nuages
Visibilité: 10 km
2018/07/17 11:00 LFPT 171100Z AUTO 33005KT 230V020 9999 FEW043 23/12 Q1018
LFPC - Creil Fafb,(60)Oise
Mise à jour: Thu, 01-Sep-2016 05:00 CEST
Pas Actualisé
Claire
Claire
 Wind from WNW
Vent: WNW 7 km/h
Température: 24°C
Point de Rosée: 13°C
Humidité: 50%
Barometre: 1023 hPa
Visibilité: Supérieure à  10 km
2016/09/01 15:00 LFPC 011500Z AUTO 30004KT 240V350 CAVOK 24/13 Q1023
 
LFBY - Dax,(40)Landes
Mise à jour: Tue, 17-Jul-2018 01:00 CEST
Partiellement nuageux
Partiellement nuageux
 Wind from varies
Vent: varies 4 km/h
Température: 25°C
Point de Rosée: 17°C
Humidité: 61%
Barometre: 1020 hPa
Nuage: Partiellement nuageux
Visibilité: 10 km
2018/07/17 11:00 LFBY 171100Z VRB02KT 9999 BKN028 SCT046 25/17 Q1020
LFRG - Deauville/Saint-Gatien,(14)Calvados
Mise à jour: Tue, 17-Jul-2018 01:00 CEST
Claire
Claire
 Wind from NW
Vent: NW 13 km/h
Température: 20°C
Point de Rosée: 11°C
Humidité: 56%
Barometre: 1019 hPa
Visibilité: Supérieure à  10 km
2018/07/17 11:00 LFRG 171100Z AUTO 32007KT 280V010 CAVOK 20/11 Q1019 NOSIG
LFSD - Dijon,(31)Côte-d Or
Mise à jour: Tue, 17-Jul-2018 01:00 CEST
Claire
Claire
 Wind from NW
Vent: NW 7 km/h
Température: 27°C
Humidex: 27°C
Point de Rosée: 13°C
Humidité: 42%
Barometre: 1017 hPa
Visibilité: Supérieure à  10 km
2018/07/17 11:00 LFSD 171100Z AUTO 32004KT 260V030 CAVOK 27/13 Q1017
 
LFRD - Dinard,(35)Ille-et-Vilaine
Mise à jour: Tue, 17-Jul-2018 01:00 CEST
Couvert
Couvert
 Wind from NNW
Vent: NNW 13 km/h
Température: 20°C
Point de Rosée: 13°C
Humidité: 64%
Barometre: 1020 hPa
Nuage: Couvert
Visibilité: 10 km
2018/07/17 11:00 LFRD 171100Z AUTO 34007KT 290V010 9999 FEW049 OVC064 20/13 Q1020 NOSIG
LFGJ - Dole-Tavaux,(39) Jura
Mise à jour: Tue, 17-Jul-2018 01:00 CEST
Claire
Claire
 Wind from WSW
Vent: WSW 11 km/h
Température: 26°C
Point de Rosée: 16°C
Humidité: 54%
Barometre: 1018 hPa
Visibilité: Supérieure à  10 km
2018/07/17 11:00 LFGJ 171100Z AUTO 25006KT 190V280 CAVOK 26/16 Q1018 TEMPO FEW060CB
FMCZ - Dzaoudzi-Pamandzi,(976)Mayotte
Mise à jour: Tue, 17-Jul-2018 01:00 CEST
Quelques nuages
Quelques nuages
 Wind from SSE
Vent: SSE 24 km/h
Température: 29°C
Humidex: 29°C
Point de Rosée: 17°C
Humidité: 48%
Barometre: 1017 hPa
Nuage: Quelques nuages
Visibilité: 10 km
2018/07/17 11:00 FMCZ 171100Z 16013KT 9999 FEW033 29/17 Q1017 NOSIG
 
LFOE - Evreux,(27)Eure
Mise à jour: Tue, 17-Jul-2018 01:00 CEST
Couvert
Couvert
 Wind from W
Vent: W 13 km/h
Température: 22°C
Point de Rosée: 10°C
Humidité: 47%
Barometre: 1019 hPa
Nuage: Couvert
Visibilité: 10 km
2018/07/17 11:00 LFOE 171100Z AUTO 28007KT 240V320 9999 BKN048 OVC058 22/10 Q1019 NOSIG
LFSG - EPINAL Mirecourt,(88)Vosges
Mise à jour: Tue, 17-Jul-2018 01:00 CEST
Claire
Claire
 Wind from varies
Vent: varies 11 km/h
Température: 28°C
Humidex: 27°C
Point de Rosée: 13°C
Humidité: 40%
Barometre: 1017 hPa
Visibilité: Supérieure à  10 km
2018/07/17 11:00 LFSG 171100Z AUTO VRB06KT CAVOK 28/13 Q1017
LFKF - Figari,(2A)Corse-du-Sud
Mise à jour: Tue, 17-Jul-2018 01:00 CEST
Quelques nuages
Quelques nuages
 Wind from SW
Vent: SW 31 km/h
Température: 28°C
Humidex: 30°C
Point de Rosée: 21°C
Humidité: 66%
Barometre: 1013 hPa
Nuage: Quelques nuages
Visibilité: 10 km
2018/07/17 11:00 LFKF 171100Z AUTO 22017KT 9999 FEW039 28/21 Q1013 TEMPO 24015G25KT
 
LFLS - Grenoble , St. Geoirs,(38)Isère
Mise à jour: Tue, 17-Jul-2018 01:00 CEST
Quelques nuages
Quelques nuages
 Wind from NW
Vent: NW 17 km/h
Température: 26°C
Point de Rosée: 14°C
Humidité: 48%
Barometre: 1018 hPa
Nuage: Quelques nuages
Visibilité: 10 km
2018/07/17 11:00 LFLS 171100Z AUTO 32009KT 280V010 9999 FEW040 26/14 Q1018 NOSIG
LFTH - Hyeres,(83)Var
Mise à jour: Tue, 17-Jul-2018 01:00 CEST
Claire
Claire
 Wind from SSW
Vent: SSW 15 km/h
Température: 30°C
Humidex: 31°C
Point de Rosée: 18°C
Humidité: 49%
Barometre: 1012 hPa
Visibilité: Supérieure à  10 km
2018/07/17 11:00 LFTH 171100Z AUTO 21008KT 180V240 CAVOK 30/18 Q1012 NOSIG
LFMI - Istres,(13)Bouches-du-Rhône
Mise à jour: Tue, 17-Jul-2018 01:00 CEST
Claire
Claire
 Wind from NNW
Vent: NNW 44 km/h
Température: 31°C
Point de Rosée: 13°C
Humidité: 33%
Barometre: 1014 hPa
Visibilité: Supérieure à  10 km
2018/07/17 11:00 LFMI 171100Z AUTO 33024KT CAVOK 31/13 Q1014 TEMPO 30020G30KT
 
LFOH - La Heve,(76)Seine-Maritime
Mise à jour: Tue, 17-Jul-2018 01:00 CEST
Claire
Claire
 Wind from WSW
Vent: WSW 13 km/h
Température: 19°C
Point de Rosée: 12°C
Humidité: 64%
Barometre: 1019 hPa
Visibilité: Supérieure à  10 km
2018/07/17 11:00 LFOH 171100Z AUTO 24007KT 200V290 CAVOK 19/12 Q1019 NOSIG
LFRI - La Roche-Sur-Yon,(85)Vendée
Mise à jour: Tue, 17-Jul-2018 01:00 CEST
Couvert
Couvert
 Wind from SW
Vent: SW 13 km/h
Température: 22°C
Point de Rosée: 13°C
Humidité: 57%
Barometre: 1020 hPa
Nuage: Couvert
Visibilité: 10 km
2018/07/17 11:00 LFRI 171100Z AUTO 23007KT 190V270 9999 FEW039 OVC052 22/13 Q1020 NOSIG
LFBH - La Rochelle,(17)Charente-Maritime
Mise à jour: Tue, 17-Jul-2018 01:00 CEST
Nuageux
Nuageux
 Wind from W
Vent: W 15 km/h
Température: 22°C
Point de Rosée: 14°C
Humidité: 61%
Barometre: 1020 hPa
Nuage: Nuageux
Visibilité: 10 km
2018/07/17 11:00 LFBH 171100Z AUTO 26008KT 220V300 9999 FEW034 SCT041 BKN047 22/14 Q1020 NOSIG
 
LFOV - Laval,Entrammes,(53)Mayenne
Mise à jour: Tue, 17-Jul-2018 01:00 CEST
Couvert
Couvert
 Wind from varies
Vent: varies 7 km/h
Température: 22°C
Point de Rosée: 11°C
Humidité: 50%
Barometre: 1019 hPa
Nuage: Couvert
Visibilité: 10 km
2018/07/17 11:00 LFOV 171100Z AUTO VRB04KT 9999 FEW045 BKN052 OVC066 22/11 Q1019
LFRJ - Landivisiau,(29)Finistère
Mise à jour: Tue, 17-Jul-2018 01:00 CEST
Couvert
Couvert
 Wind from NW
Vent: NW 13 km/h
Température: 18°C
Point de Rosée: 12°C
Humidité: 68%
Barometre: 1020 hPa
Nuage: Couvert
Visibilité: 10 km
2018/07/17 11:00 LFRJ 171100Z AUTO 31007KT 9999 BKN029 BKN037 OVC058 18/12 Q1020 TEMPO SHRA
LFRO - Lannion,Servel,(22)Côtes-d Armor
Mise à jour: Tue, 17-Jul-2018 01:00 CEST
Légère pluie, Nuageux
Légère pluie, Nuageux
 Wind from WSW
Vent: WSW 19 km/h
Température: 15°C
Point de Rosée: 13°C
Humidité: 88%
Barometre: 1020 hPa
Nuage: Nuageux
Visibilité: 10 km
2018/07/17 11:00 LFRO 171100Z AUTO 25010KT 9999 -RA FEW014 BKN022 BKN028 15/13 Q1020 TEMPO SHRA
 
LFRL - Lanveoc Poulmic,(29)Finistère
Mise à jour: Tue, 17-Jul-2018 01:00 CEST
Couvert
Couvert
 Wind from WNW
Vent: WNW 19 km/h
Température: 20°C
Point de Rosée: 11°C
Humidité: 56%
Barometre: 1020 hPa
Nuage: Couvert
Visibilité: 10 km
2018/07/17 11:00 LFRL 171100Z AUTO 29010KT 9999 BKN036 OVC062 20/11 Q1020 NOSIG
TFFF - Le Lamentin,(972)Martinique
Mise à jour: Tue, 17-Jul-2018 01:00 CEST
Nuageux
Nuageux
 Wind from E
Vent: E 26 km/h
Température: 28°C
Humidex: 31°C
Point de Rosée: 23°C
Humidité: 74%
Barometre: 1018 hPa
Nuage: Nuageux
Visibilité: 10 km
2018/07/17 11:00 TFFF 171100Z AUTO 10014KT 9999 SCT022 SCT027 BKN033 28/23 Q1018 TEMPO 09015G25KT 4500 SHRA SCT018TCU
LFMC - Le Luc,(83)Var
Mise à jour: Tue, 17-Jul-2018 01:00 CEST
Quelques nuages
Quelques nuages
 Wind from varies
Vent: varies 7 km/h
Température: 30°C
Humidex: 29°C
Point de Rosée: 15°C
Humidité: 40%
Barometre: 1013 hPa
Nuage: Quelques nuages
Visibilité: 10 km
2018/07/17 11:00 LFMC 171100Z VRB04KT 9999 FEW040 30/15 Q1013
 
LFRM - Le Mans,(72)Sarthe
Mise à jour: Tue, 17-Jul-2018 01:00 CEST
Couvert
Couvert
 Wind from varies
Vent: varies 9 km/h
Température: 24°C
Point de Rosée: 14°C
Humidité: 54%
Barometre: 1019 hPa
Nuage: Couvert
Visibilité: 10 km
2018/07/17 11:00 LFRM 171100Z AUTO VRB05KT 9999 FEW036 OVC070 24/14 Q1019 NOSIG
LFAT - Le Touquet,(62)Pas-de-Calais
Mise à jour: Tue, 17-Jul-2018 01:00 CEST
Partiellement nuageux
Partiellement nuageux
 Wind from W
Vent: W 19 km/h
Température: 19°C
Point de Rosée: 14°C
Humidité: 73%
Barometre: 1018 hPa
Nuage: Partiellement nuageux
Visibilité: 10 km
2018/07/17 11:00 LFAT 171100Z AUTO 26010KT 220V310 9999 SCT015 19/14 Q1018 NOSIG
LFQQ - Lille,(59)Nord
Mise à jour: Tue, 17-Jul-2018 01:00 CEST
Claire
Claire
 Wind from WSW
Vent: WSW 22 km/h
Température: 24°C
Point de Rosée: 9°C
Humidité: 39%
Barometre: 1017 hPa
Visibilité: Supérieure à  10 km
2018/07/17 11:00 LFQQ 171100Z AUTO 24012KT 200V290 CAVOK 24/09 Q1017 NOSIG
 
LFRH - Lorient/Lann Bih,(56)Morbihan
Mise à jour: Tue, 17-Jul-2018 01:00 CEST
Nuageux
Nuageux
 Wind from W
Vent: W 22 km/h
Température: 21°C
Point de Rosée: 13°C
Humidité: 60%
Barometre: 1020 hPa
Nuage: Nuageux
Visibilité: 10 km
2018/07/17 11:00 LFRH 171100Z AUTO 27012KT 240V300 9999 FEW024 BKN066 21/13 Q1020 NOSIG
LFBL - Limoges,(87)Haute-Vienne
Mise à jour: Tue, 17-Jul-2018 01:00 CEST
Couvert
Couvert
 Wind from WSW
Vent: WSW 13 km/h
Température: 20°C
Point de Rosée: 14°C
Humidité: 69%
Barometre: 1021 hPa
Nuage: Couvert
Visibilité: 10 km
2018/07/17 11:00 LFBL 171100Z AUTO 24007KT 210V280 9999 SCT025 BKN032 OVC039 20/14 Q1021 NOSIG
LFSX - Luxeuil-les-Bains,(70)Haute-Saône
Mise à jour: Tue, 17-Jul-2018 01:00 CEST
Claire
Claire
 Wind from W
Vent: W 13 km/h
Température: 26°C
Point de Rosée: 14°C
Humidité: 48%
Barometre: 1017 hPa
Nuage: Claire
Visibilité: 10 km
2018/07/17 11:00 LFSX 171100Z AUTO 27007KT 220V330 9999 NCD 26/14 Q1017 TEMPO SHRA BKN060CB
 
LFLY - Lyon,Bron,(69) Rhône
Mise à jour: Tue, 17-Jul-2018 01:00 CEST
Quelques nuages
Quelques nuages
 Wind from N
Vent: N 17 km/h
Température: 27°C
Humidex: 27°C
Point de Rosée: 14°C
Humidité: 45%
Barometre: 1018 hPa
Nuage: Quelques nuages
Visibilité: 10 km
2018/07/17 11:00 LFLY 171100Z AUTO 35009KT 310V040 9999 FEW054 27/14 Q1018 NOSIG
LFLL - Lyon,Satolas,(69) Rhône
Mise à jour: Tue, 17-Jul-2018 01:00 CEST
Quelques nuages
Quelques nuages
 Wind from NW
Vent: NW 13 km/h
Température: 27°C
Humidex: 27°C
Point de Rosée: 14°C
Humidité: 45%
Barometre: 1018 hPa
Nuage: Quelques nuages
Visibilité: 10 km
2018/07/17 11:00 LFLL 171100Z 32007KT 280V360 9999 FEW046 27/14 Q1018 NOSIG
LFJR - Marcé,(49) Maine-et-Loire
Mise à jour: Tue, 17-Jul-2018 01:00 CEST
Claire
Claire
 Wind from varies
Vent: varies 9 km/h
Température: 23°C
Point de Rosée: 14°C
Humidité: 57%
Barometre: 1019 hPa
Visibilité: Supérieure à  10 km
2018/07/17 11:00 LFJR 171100Z AUTO VRB05KT CAVOK 23/14 Q1019 NOSIG
 
LFML - Marseille, Marignane,(13)Bouches-du-Rhône
Mise à jour: Tue, 17-Jul-2018 01:00 CEST
Claire
Claire
 Wind from NW
Vent: NW 33 km/h
Température: 31°C
Point de Rosée: 15°C
Humidité: 38%
Barometre: 1013 hPa
Visibilité: Supérieure à  10 km
2018/07/17 11:00 LFML 171100Z AUTO 31018KT CAVOK 31/15 Q1013 TEMPO 30019G29KT
SOCA - Matury,(973)Guyane
Mise à jour: Tue, 17-Jul-2018 01:00 CEST
Couvert
Couvert
 Wind from SSW
Vent: SSW 2 km/h
Température: 24°C
Point de Rosée: 24°C
Humidité: 100%
Barometre: 1015 hPa
Nuage: Couvert
Visibilité: 10 km
2018/07/17 11:00 SOCA 171100Z AUTO 21001KT 9999 FEW002 OVC190 24/24 Q1015
LFPM - Melun,(77)Seine-et-Marne
Mise à jour: Tue, 17-Jul-2018 01:00 CEST
Nuageux
Nuageux
 Wind from WNW
Vent: WNW 13 km/h
Température: 24°C
Point de Rosée: 13°C
Humidité: 50%
Barometre: 1018 hPa
Nuage: Nuageux
Visibilité: 10 km
2018/07/17 11:00 LFPM 171100Z AUTO 30007KT 280V350 9999 SCT041 BKN048 BKN070 24/13 Q1018
 
LFJL - Metz-Nancy-Lorraine,(57)Moselle
Mise à jour: Tue, 17-Jul-2018 01:00 CEST
Claire
Claire
 Wind from WNW
Vent: WNW 19 km/h
Température: 28°C
Humidex: 27°C
Point de Rosée: 13°C
Humidité: 40%
Barometre: 1017 hPa
Visibilité: Supérieure à  10 km
2018/07/17 11:00 LFJL 171100Z AUTO 29010KT 250V330 CAVOK 28/13 Q1017 NOSIG
LFBM - Mont-De-Marsan,(40)Landes
Mise à jour: Tue, 17-Jul-2018 01:00 CEST
Nuageux
Nuageux
 Wind from ESE
Vent: ESE 9 km/h
Température: 25°C
Point de Rosée: 17°C
Humidité: 61%
Barometre: 1020 hPa
Nuage: Nuageux
Visibilité: 10 km
2018/07/17 11:00 LFBM 171100Z AUTO 11005KT 080V180 9999 FEW043 BKN054 25/17 Q1020 NOSIG
LFMT - Montpellier,(34)Hérault
Mise à jour: Tue, 17-Jul-2018 01:00 CEST
Claire
Claire
 Wind from NW
Vent: NW 17 km/h
Température: 32°C
Point de Rosée: 13°C
Humidité: 31%
Barometre: 1015 hPa
Visibilité: Supérieure à  10 km
2018/07/17 11:00 LFMT 171100Z AUTO 32009KT 250V030 CAVOK 32/13 Q1015 NOSIG
 
LFRU - Morlaix Ploujean,(29)Finistère
Mise à jour: Tue, 17-Jul-2018 01:00 CEST
Couvert
Couvert
 Wind from WNW
Vent: WNW 6 km/h
Température: 18°C
Point de Rosée: 14°C
Humidité: 78%
Barometre: 1019 hPa
Nuage: Couvert
Visibilité: 10 km
2018/07/17 11:00 LFRU 171100Z AUTO 29003KT 250V340 9999 BKN044 OVC052 18/14 Q1019
LFSN - Nancy,Essey,(54)Meurthe-et-Moselle
Mise à jour: Tue, 17-Jul-2018 01:00 CEST
Claire
Claire
 Wind from W
Vent: W 15 km/h
Température: 28°C
Point de Rosée: 12°C
Humidité: 37%
Barometre: 1016 hPa
Visibilité: Supérieure à  10 km
2018/07/17 11:00 LFSN 171100Z AUTO 28008KT 240V340 CAVOK 28/12 Q1016
LFSO - Nancy , Ochey,(54)Meurthe-et-Moselle
Mise à jour: Tue, 17-Jul-2018 01:00 CEST
Claire
Claire
 Wind from W
Vent: W 11 km/h
Température: 27°C
Humidex: 27°C
Point de Rosée: 13°C
Humidité: 42%
Barometre: 1017 hPa
Visibilité: Supérieure à  10 km
2018/07/17 11:00 LFSO 171100Z AUTO 27006KT 230V340 CAVOK 27/13 Q1017 NOSIG
 
LFRS - Nantes,(44)Loire-Atlantique
Mise à jour: Tue, 17-Jul-2018 01:00 CEST
Partiellement nuageux
Partiellement nuageux
 Wind from WSW
Vent: WSW 9 km/h
Température: 23°C
Point de Rosée: 14°C
Humidité: 57%
Barometre: 1019 hPa
Nuage: Partiellement nuageux
Visibilité: 10 km
2018/07/17 11:00 LFRS 171100Z AUTO 25005KT 170V340 9999 FEW040 SCT056 23/14 Q1019 NOSIG
LFQG - Nevers,Fourchamb,(58)Nièvre
Mise à jour: Tue, 17-Jul-2018 01:00 CEST
Nuageux
Nuageux
 Wind from W
Vent: W 19 km/h
Température: 24°C
Point de Rosée: 14°C
Humidité: 54%
Barometre: 1019 hPa
Nuage: Nuageux
Visibilité: 10 km
2018/07/17 11:00 LFQG 171100Z AUTO 27010KT 220V310 9999 BKN034 BKN040 24/14 Q1019
LFMN - Nice,(06)Alpes-Maritimes
Mise à jour: Tue, 17-Jul-2018 01:00 CEST
Quelques nuages
Quelques nuages
 Wind from S
Vent: S 9 km/h
Température: 27°C
Humidex: 28°C
Point de Rosée: 19°C
Humidité: 62%
Barometre: 1012 hPa
Nuage: Quelques nuages
Visibilité: 10 km
2018/07/17 11:00 LFMN 171100Z 18005KT 9999 FEW030 27/19 Q1012 NOSIG
 
LFTW - Nimes, Garons,(30) Gard
Mise à jour: Tue, 17-Jul-2018 01:00 CEST
Claire
Claire
 Wind from NNW
Vent: NNW 22 km/h
Température: 32°C
Point de Rosée: 13°C
Humidité: 31%
Barometre: 1015 hPa
Visibilité: Supérieure à  10 km
2018/07/17 11:00 LFTW 171100Z AUTO 34012KT 290V020 CAVOK 32/13 Q1015 TEMPO 03015G25KT
LFMO - Orange,(84)Vaucluse
Mise à jour: Tue, 17-Jul-2018 01:00 CEST
Quelques nuages
Quelques nuages
 Wind from N
Vent: N 41 km/h
Température: 30°C
Point de Rosée: 13°C
Humidité: 35%
Barometre: 1015 hPa
Nuage: Quelques nuages
Visibilité: 10 km
2018/07/17 11:00 LFMO 171100Z AUTO 35022KT 9999 FEW064 30/13 Q1015 BECMG 34015G25KT
LFOJ - Orleans,(45)Loiret
Mise à jour: Tue, 17-Jul-2018 01:00 CEST
Nuageux
Nuageux
 Wind from W
Vent: W 15 km/h
Température: 23°C
Point de Rosée: 13°C
Humidité: 53%
Barometre: 1018 hPa
Nuage: Nuageux
Visibilité: 10 km
2018/07/17 11:00 LFOJ 171100Z AUTO 28008KT 250V320 9999 FEW041 SCT054 BKN072 23/13 Q1018 NOSIG
 
LFPB - Paris ,Le Bourget,(93)Seine-Saint-Denis
Mise à jour: Mon, 16-Jul-2018 10:30 CEST
Pas Actualisé
Orageux
Orageux
 Wind from NW
Vent: NW 13 km/h
Température: 21°C
Point de Rosée: 12°C
Humidité: 57%
Barometre: 1013 hPa
Nuage: Orageux
Visibilité: 10 km
2018/07/16 08:30 LFPB 160830Z AUTO 32007KT 280V360 9999 ///TCU 21/12 Q1013 NOSIG
LFPG - Paris, Charles De Gaulle,(95)Val-d Oise
Mise à jour: Tue, 17-Jul-2018 01:00 CEST
Nuageux
Nuageux
 Wind from NW
Vent: NW 13 km/h
Température: 24°C
Point de Rosée: 13°C
Humidité: 50%
Barometre: 1018 hPa
Nuage: Nuageux
Visibilité: 10 km
2018/07/17 11:00 LFPG 171100Z 31007KT 230V350 9999 FEW037 BKN058 24/13 Q1018 NOSIG
LFPO - Paris-Orly,(94)Val-de-Marne
Mise à jour: Tue, 17-Jul-2018 01:00 CEST
Nuageux
Nuageux
 Wind from WNW
Vent: WNW 13 km/h
Température: 25°C
Point de Rosée: 14°C
Humidité: 51%
Barometre: 1018 hPa
Nuage: Nuageux
Visibilité: 10 km
2018/07/17 11:00 LFPO 171100Z 29007KT 230V350 9999 SCT040 SCT046 BKN230 25/14 Q1018 NOSIG
 
LFBP - Pau,(64)Pyrénées-Atlantiques
Mise à jour: Tue, 17-Jul-2018 01:00 CEST
Quelques nuages
Quelques nuages
 Wind from ENE
Vent: ENE 9 km/h
Température: 25°C
Point de Rosée: 16°C
Humidité: 57%
Barometre: 1020 hPa
Nuage: Quelques nuages
Visibilité: 10 km
2018/07/17 11:00 LFBP 171100Z AUTO 06005KT 360V130 9999 FEW035 25/16 Q1020 NOSIG
LFMP - Perpignan,(66)Pyrénées-Orientales
Mise à jour: Tue, 17-Jul-2018 01:00 CEST
Claire
Claire
 Wind from NNW
Vent: NNW 22 km/h
Température: 29°C
Point de Rosée: 13°C
Humidité: 37%
Barometre: 1017 hPa
Visibilité: Supérieure à  10 km
2018/07/17 11:00 LFMP 171100Z AUTO 33012KT CAVOK 29/13 Q1017 TEMPO 32015G25KT
LFBI - Poitiers,(86)Vienne
Mise à jour: Tue, 17-Jul-2018 01:00 CEST
Claire
Claire
 Wind from W
Vent: W 19 km/h
Température: 23°C
Point de Rosée: 11°C
Humidité: 47%
Barometre: 1020 hPa
Visibilité: Supérieure à  10 km
2018/07/17 11:00 LFBI 171100Z AUTO 27010KT 240V310 CAVOK 23/11 Q1020 NOSIG
 
LFBP - Pont-Long-Uzein,(64)Pyrénées-Atlantiques
Mise à jour: Tue, 17-Jul-2018 01:00 CEST
Quelques nuages
Quelques nuages
 Wind from ENE
Vent: ENE 9 km/h
Température: 25°C
Point de Rosée: 16°C
Humidité: 57%
Barometre: 1020 hPa
Nuage: Quelques nuages
Visibilité: 10 km
2018/07/17 11:00 LFBP 171100Z AUTO 06005KT 360V130 9999 FEW035 25/16 Q1020 NOSIG
TFFR - Point à Pitre,(971)Guadeloupe
Mise à jour: Tue, 17-Jul-2018 01:00 CEST
Nuageux
Nuageux
 Wind from varies
Vent: varies 6 km/h
Température: 26°C
Point de Rosée: 24°C
Humidité: 89%
Barometre: 1018 hPa
Nuage: Nuageux
Visibilité: 10 km
2018/07/17 11:00 TFFR 171100Z AUTO VRB03KT 9999 FEW019 SCT034 BKN052 26/24 Q1018 TEMPO 4500 SHRA BKN018TCU
LFRQ - Quimper,(29)Finistère
Mise à jour: Tue, 17-Jul-2018 01:00 CEST
Nuageux
Nuageux
 Wind from W
Vent: W 17 km/h
Température: 21°C
Point de Rosée: 10°C
Humidité: 50%
Barometre: 1020 hPa
Nuage: Nuageux
Visibilité: 10 km
2018/07/17 11:00 LFRQ 171100Z AUTO 26009KT 9999 FEW043 BKN064 21/10 Q1020 TEMPO SHRA
 
LFQA - Reims,Prunay,(51)Marne
Mise à jour: Tue, 17-Jul-2018 01:00 CEST
Nuageux
Nuageux
 Wind from NW
Vent: NW 11 km/h
Température: 25°C
Point de Rosée: 14°C
Humidité: 51%
Barometre: 1017 hPa
Nuage: Nuageux
Visibilité: 10 km
2018/07/17 11:00 LFQA 171100Z AUTO 32006KT 280V020 9999 FEW041 BKN068 BKN080 25/14 Q1017
LFRN - Rennes,(35)Ille-et-Vilaine
Mise à jour: Tue, 17-Jul-2018 01:00 CEST
Claire
Claire
 Wind from WSW
Vent: WSW 11 km/h
Température: 21°C
Point de Rosée: 11°C
Humidité: 53%
Barometre: 1019 hPa
Visibilité: Supérieure à  10 km
2018/07/17 11:00 LFRN 171100Z AUTO 25006KT 210V300 CAVOK 21/11 Q1019 NOSIG
LFCR - Rodez,(12)Aveyron
Mise à jour: Tue, 17-Jul-2018 01:00 CEST
Nuageux
Nuageux
 Wind from WNW
Vent: WNW 17 km/h
Température: 20°C
Point de Rosée: 14°C
Humidité: 69%
Barometre: 1022 hPa
Nuage: Nuageux
Visibilité: 10 km
2018/07/17 11:00 LFCR 171100Z AUTO 29009KT 260V330 9999 BKN025 20/14 Q1022 NOSIG
 
LFYR - Romorantin,(41)Loir-et-Cher
Mise à jour: Tue, 17-Jul-2018 01:00 CEST
Partiellement nuageux
Partiellement nuageux
 Wind from W
Vent: W 11 km/h
Température: 24°C
Point de Rosée: 13°C
Humidité: 50%
Barometre: 1018 hPa
Nuage: Partiellement nuageux
Visibilité: 10 km
2018/07/17 11:00 LFYR 171100Z AUTO 27006KT 220V320 9999 SCT037 SCT043 24/13 Q1018 NOSIG
LFOP - Rouen,(76)Seine-Maritime
Mise à jour: Tue, 17-Jul-2018 01:00 CEST
Nuageux
Nuageux
 Wind from NW
Vent: NW 13 km/h
Température: 22°C
Point de Rosée: 12°C
Humidité: 53%
Barometre: 1019 hPa
Nuage: Nuageux
Visibilité: 10 km
2018/07/17 11:00 LFOP 171100Z AUTO 31007KT 260V350 9999 BKN044 BKN050 22/12 Q1019 NOSIG
LFRT - Saint-Brieuc,(22)Côtes-d Armor
Mise à jour: Tue, 17-Jul-2018 01:00 CEST
Couvert
Couvert
 Wind from NNW
Vent: NNW 11 km/h
Température: 20°C
Point de Rosée: 13°C
Humidité: 64%
Barometre: 1019 hPa
Nuage: Couvert
Visibilité: 10 km
2018/07/17 11:00 LFRT 171100Z AUTO 33006KT 280V010 9999 SCT033 SCT039 OVC062 20/13 Q1019
 
FMEE - Saint-Denis,(974)Réunion
Mise à jour: Tue, 17-Jul-2018 01:00 CEST
Couvert
Couvert
 Wind from E
Vent: E 20 km/h
Température: 25°C
Point de Rosée: 16°C
Humidité: 57%
Barometre: 1017 hPa
Nuage: Couvert
Visibilité: 10 km
2018/07/17 11:00 FMEE 171100Z AUTO 10011KT 9999 BKN045 OVC054 25/16 Q1017 TEMPO SHRA
LFLN - Saint-Yan,(71)Saône-et-Loire
Mise à jour: Tue, 17-Jul-2018 01:00 CEST
Partiellement nuageux
Partiellement nuageux
 Wind from W
Vent: W 17 km/h
Température: 24°C
Point de Rosée: 14°C
Humidité: 54%
Barometre: 1019 hPa
Nuage: Partiellement nuageux
Visibilité: 10 km
2018/07/17 11:00 LFLN 171100Z AUTO 28009KT 240V330 9999 SCT036 24/14 Q1019 NOSIG
LFMY - Salon-de-Provence,(13)Bouches-du-Rhône
Mise à jour: Tue, 17-Jul-2018 01:00 CEST
Claire
Claire
 Wind from NW
Vent: NW 24 km/h
Température: 31°C
Point de Rosée: 15°C
Humidité: 38%
Barometre: 1014 hPa
Visibilité: Supérieure à  10 km
2018/07/17 11:00 LFMY 171100Z AUTO 32013KT 280V350 CAVOK 31/15 Q1014 BECMG 33015G25KT
 
LFKS - Solenzara,(2A)Corse-du-Sud
Mise à jour: Tue, 17-Jul-2018 01:00 CEST
Claire
Claire
 Wind from ESE
Vent: ESE 13 km/h
Température: 29°C
Humidex: 29°C
Point de Rosée: 16°C
Humidité: 45%
Barometre: 1013 hPa
Visibilité: Supérieure à  10 km
2018/07/17 11:00 LFKS 171100Z AUTO 12007KT 090V160 CAVOK 29/16 Q1013
LFSI - St-Dizier,(52)Haute-Marne
Mise à jour: Tue, 17-Jul-2018 01:00 CEST
Claire
Claire
 Wind from W
Vent: W 11 km/h
Température: 26°C
Point de Rosée: 11°C
Humidité: 39%
Barometre: 1017 hPa
Visibilité: Supérieure à  10 km
2018/07/17 11:00 LFSI 171100Z AUTO 28006KT 240V310 CAVOK 26/11 Q1017
LFMH - St-Etienne Boutheon,(42) Loire
Mise à jour: Tue, 17-Jul-2018 01:00 CEST
Claire
Claire
 Wind from N
Vent: N 11 km/h
Température: 25°C
Point de Rosée: 14°C
Humidité: 51%
Barometre: 1019 hPa
Visibilité: Supérieure à  10 km
2018/07/17 11:00 LFMH 171100Z AUTO 36006KT 320V070 CAVOK 25/14 Q1019 NOSIG
 
LFVP - St-Pierre et Miquelon,(975)Outre-mer
Mise à jour: Tue, 17-Jul-2018 01:00 CEST
Brouillard
Brouillard
 Wind from varies
Vent: varies 6 km/h
Température: 14°C
Point de Rosée: 14°C
Humidité: 100%
Barometre: 1013 hPa
Visibilité: 0 km
2018/07/17 11:00 LFVP 171100Z VRB03KT 0350 R26Y/0450D FG VV/// 14/14 Q1013 NOSIG
LFRZ - St-Nazaire,(44)Loire-Atlantique
Mise à jour: Tue, 17-Jul-2018 01:00 CEST
Nuageux
Nuageux
 Wind from S
Vent: S 15 km/h
Température: 21°C
Point de Rosée: 13°C
Humidité: 60%
Barometre: 1019 hPa
Nuage: Nuageux
Visibilité: 10 km
2018/07/17 11:00 LFRZ 171100Z AUTO 17008KT 9999 FEW041 SCT050 BKN062 21/13 Q1019 NOSIG
LFST - Strasbourg,(67)Bas-Rhin
Mise à jour: Tue, 17-Jul-2018 01:00 CEST
Claire
Claire
 Wind from varies
Vent: varies 11 km/h
Température: 29°C
Point de Rosée: 13°C
Humidité: 37%
Barometre: 1015 hPa
Visibilité: Supérieure à  10 km
2018/07/17 11:00 LFST 171100Z AUTO VRB06KT CAVOK 29/13 Q1015 NOSIG
 
LFBT - Tarbes, Ossun,(65)Hautes-Pyrénées
Mise à jour: Tue, 17-Jul-2018 01:00 CEST
Claire
Claire
 Wind from varies
Vent: varies 9 km/h
Température: 23°C
Point de Rosée: 14°C
Humidité: 57%
Barometre: 1021 hPa
Visibilité: Supérieure à  10 km
2018/07/17 11:00 LFBT 171100Z AUTO VRB05KT CAVOK 23/14 Q1021 NOSIG
LFBO - Toulouse,Blagnac,(31)Haute-Garonne
Mise à jour: Tue, 17-Jul-2018 01:00 CEST
Nuageux
Nuageux
 Wind from NE
Vent: NE 7 km/h
Température: 24°C
Point de Rosée: 15°C
Humidité: 57%
Barometre: 1021 hPa
Nuage: Nuageux
Visibilité: 10 km
2018/07/17 11:00 LFBO 171100Z AUTO 04004KT 320V100 9999 FEW029 BKN049 24/15 Q1021 NOSIG
LFOT - Tours,(37)Indre-et-Loire
Mise à jour: Tue, 17-Jul-2018 01:00 CEST
Nuageux
Nuageux
 Wind from SW
Vent: SW 7 km/h
Température: 24°C
Point de Rosée: 15°C
Humidité: 57%
Barometre: 1019 hPa
Nuage: Nuageux
Visibilité: 10 km
2018/07/17 11:00 LFOT 171100Z AUTO 22004KT 170V250 9999 BKN037 BKN066 24/15 Q1019 NOSIG
 
LFPN - Toussus Le Noble,(78)Yvelines
Mise à jour: Tue, 17-Jul-2018 01:00 CEST
Couvert
Couvert
 Wind from WNW
Vent: WNW 9 km/h
Température: 23°C
Point de Rosée: 14°C
Humidité: 57%
Barometre: 1018 hPa
Nuage: Couvert
Visibilité: 10 km
2018/07/17 11:00 LFPN 171100Z AUTO 29005KT 210V350 9999 BKN038 OVC048 23/14 Q1018 NOSIG
LFQB - Troyes,Barberey,(10)Aube
Mise à jour: Tue, 17-Jul-2018 01:00 CEST

 Wind from W
Vent: W 11 km/h
Température: 26°C
Point de Rosée: 12°C
Humidité: 42%
Barometre: 1017 hPa
Visibilité: 10 km
2018/07/17 11:00 LFQB 171100Z AUTO 26006KT 210V320 9999 ////// 26/12 Q1017
LFLU - VALENCE Chabeuil,(26)Drôme
Mise à jour: Tue, 17-Jul-2018 01:00 CEST
Claire
Claire
 Wind from N
Vent: N 28 km/h
Température: 28°C
Humidex: 28°C
Point de Rosée: 15°C
Humidité: 45%
Barometre: 1016 hPa
Visibilité: Supérieure à  10 km
2018/07/17 11:00 LFLU 171100Z AUTO 36015KT CAVOK 28/15 Q1016
 
LFRV - Vannes,Meucon,(56)Morbihan
Mise à jour: Tue, 17-Jul-2018 01:00 CEST
Couvert
Couvert
 Wind from WSW
Vent: WSW 11 km/h
Température: 20°C
Point de Rosée: 12°C
Humidité: 60%
Barometre: 1019 hPa
Nuage: Couvert
Visibilité: 10 km
2018/07/17 11:00 LFRV 171100Z AUTO 24006KT 190V290 9999 FEW038 OVC062 20/12 Q1019
LFPV - Villacoublay,(78)Yvelines
Mise à jour: Tue, 17-Jul-2018 01:00 CEST
Nuageux
Nuageux
 Wind from NW
Vent: NW 9 km/h
Température: 23°C
Point de Rosée: 13°C
Humidité: 53%
Barometre: 1018 hPa
Nuage: Nuageux
Visibilité: 10 km
2018/07/17 11:00 LFPV 171100Z AUTO 31005KT 260V360 9999 FEW037 BKN048 BKN054 23/13 Q1018 NOSIG

Metar display script from Saratoga-Weather.org